PILOTS ONLINE: 460    ATC ONLINE: 79

KVBG - Vandenberg Air Force Base

Location

City Lompoc
Country  United States
Latitude 34° 44' 14" N
Longitude 120° 35' 2" W
Elevation 369 ft
Type Large Airport

Runways

12/30 15000 ft / 200 ft

Weather

METAR
2014/07/29 16:27
KVBG 291627Z 34005KT 1 1/4SM BR OVC002 17/16 A3009 RMK AO2 VIS 1/2 RWY12 $ 
TAF
2014/07/29 15:24
TAF TAF 
      AMD KVBG 2915/3020 35009KT 0400 FG VV002 QNH3006INS 
      BECMG 2915/2916 35009KT 1600 BR BKN002 BKN200 QNH3009INS 
      BECMG 2916/2917 35009KT 4800 BR SCT005 BKN200 QNH3010INS 
      BECMG 2917/2918 33012KT 9999 NSW SCT005 BKN200 QNH3005INS 
      BECMG 3002/3003 32010KT 4800 BR OVC005 QNH3006INS 
      BECMG 3003/3004 33009KT 1600 BR BKN002 OVC005 QNH3001INS 
      BECMG 3006/3007 32009KT 0800 FG OVC002 QNH3002INS 
      BECMG 3014/3015 33009KT 1600 BR BKN002 OVC005 QNH3006INS 
      BECMG 3015/3016 33009KT 3200 BR SCT002 BKN005 OVC200 QNH3007INS 
      BECMG 3016/3017 33012KT 8000 BR SCT005 BKN200 QNH3008INS 
      BECMG 3018/3019 32015KT 9999 NSW SCT005 BKN200 QNH3009INS T22/3000Z T13/3012Z 
      AMD 291514

Outbound flights

Inbound flights